Time;durP1;ratioP1;P1;durP2;ratioP2;P2;SDS_P1;SDS_P2;PMS_P1;PMS_P2;Temp;Humidity;BMP_temperature;BMP_pressure;BME280_temperature;BME280_humidity;BME280_pressure;Samples;Min_cycle;Max_cycle;Signal;HPM_P1;HPM_P2
2022/10/12 00:00:24;;;;;;;13.23;9.65;;;;;;;;;;5072445;28;20503;-69
2022/10/12 00:02:50;;;;;;;14.50;9.75;;;;;;;;;;5072379;28;20059;-69
2022/10/12 00:05:17;;;;;;;16.42;9.93;;;;;;;;;;5072437;28;20071;-69
2022/10/12 00:07:43;;;;;;;12.77;9.30;;;;;;;;;;5072433;28;20056;-69
2022/10/12 00:10:09;;;;;;;14.60;9.23;;;;;;;;;;5072463;28;20041;-69
2022/10/12 00:12:36;;;;;;;16.75;9.38;;;;;;;;;;5042190;28;20036;-69
2022/10/12 00:15:02;;;;;;;12.82;9.07;;;;;;;;;;5072379;28;20143;-69
2022/10/12 00:17:29;;;;;;;13.95;9.80;;;;;;;;;;5071940;28;20412;-69
2022/10/12 00:19:55;;;;;;;14.57;9.55;;;;;;;;;;5071950;28;20488;-69
2022/10/12 00:22:22;;;;;;;14.90;9.80;;;;;;;;;;5071866;28;20059;-69
2022/10/12 00:24:48;;;;;;;13.55;9.75;;;;;;;;;;5072185;28;20044;-69
2022/10/12 00:27:14;;;;;;;15.52;10.05;;;;;;;;;;5071796;28;20051;-69
2022/10/12 00:29:41;;;;;;;13.85;9.48;;;;;;;;;;5071646;28;20522;-69
2022/10/12 00:32:08;;;;;;;14.88;9.43;;;;;;;;;;5071803;28;20410;-69
2022/10/12 00:34:34;;;;;;;16.20;9.33;;;;;;;;;;5071532;28;20408;-69
2022/10/12 00:37:01;;;;;;;15.57;10.45;;;;;;;;;;5072174;28;20051;-69
2022/10/12 00:39:27;;;;;;;13.85;9.85;;;;;;;;;;5071734;28;20064;-69
2022/10/12 00:41:53;;;;;;;15.48;9.73;;;;;;;;;;5071670;28;20056;-69
2022/10/12 00:44:49;;;;;;;13.85;10.18;;;;;;;;;;5071696;28;20059;-69
2022/10/12 00:47:15;;;;;;;13.85;9.65;;;;;;;;;;5062886;28;20052;-69
2022/10/12 00:49:44;;;;;;;14.38;8.98;;;;;;;;;;5071723;28;20052;-69
2022/10/12 00:52:12;;;;;;;16.20;10.10;;;;;;;;;;5071853;28;20056;-69
2022/10/12 00:54:43;;;;;;;12.93;10.10;;;;;;;;;;5072609;28;20055;-69
2022/10/12 00:57:11;;;;;;;13.30;10.45;;;;;;;;;;5071514;28;20385;-69
2022/10/12 00:59:43;;;;;;;18.00;10.70;;;;;;;;;;5071524;28;20412;-69
2022/10/12 01:02:10;;;;;;;16.20;7.15;;;;;;;;;;5071378;28;20507;-69
2022/10/12 01:04:37;;;;;;;16.90;6.68;;;;;;;;;;5071973;28;20055;-69
2022/10/12 01:07:04;;;;;;;13.93;6.77;;;;;;;;;;5071561;28;20052;-69
2022/10/12 01:09:30;;;;;;;17.73;7.35;;;;;;;;;;5071814;28;20045;-69
2022/10/12 01:11:57;;;;;;;17.08;6.55;;;;;;;;;;5071427;28;20044;-69
2022/10/12 01:14:23;;;;;;;12.68;5.30;;;;;;;;;;5071789;28;20041;-69
2022/10/12 01:16:50;;;;;;;17.77;5.93;;;;;;;;;;5071556;28;20048;-69
2022/10/12 01:19:34;;;;;;;13.30;4.70;;;;;;;;;;5071420;28;20048;-69
2022/10/12 01:22:03;;;;;;;12.30;6.65;;;;;;;;;;5071683;28;20052;-69
2022/10/12 01:24:49;;;;;;;12.95;7.05;;;;;;;;;;5075012;28;20048;-69
2022/10/12 01:27:20;;;;;;;12.60;6.82;;;;;;;;;;5075178;28;20060;-69
2022/10/12 01:29:52;;;;;;;16.88;7.75;;;;;;;;;;5075131;28;20055;-69
2022/10/12 01:32:37;;;;;;;13.73;6.85;;;;;;;;;;5075258;28;20056;-69
2022/10/12 01:35:07;;;;;;;17.15;7.25;;;;;;;;;;5075013;28;20049;-69
2022/10/12 01:37:38;;;;;;;14.07;7.32;;;;;;;;;;5075387;28;20048;-69
2022/10/12 01:40:13;;;;;;;15.77;7.22;;;;;;;;;;5075280;28;20127;-69
2022/10/12 01:42:40;;;;;;;12.52;7.07;;;;;;;;;;5075286;28;20056;-69
2022/10/12 01:45:08;;;;;;;11.05;7.68;;;;;;;;;;5075141;28;20044;-71
2022/10/12 01:47:36;;;;;;;11.20;7.45;;;;;;;;;;5074918;28;20053;-70
2022/10/12 01:50:05;;;;;;;13.02;7.68;;;;;;;;;;5075038;28;20122;-70
2022/10/12 01:52:38;;;;;;;14.15;7.45;;;;;;;;;;5074902;28;20043;-69
2022/10/12 01:55:18;;;;;;;11.93;7.25;;;;;;;;;;5074935;28;20411;-71
2022/10/12 01:58:03;;;;;;;12.95;7.13;;;;;;;;;;5074766;28;20051;-69
2022/10/12 02:00:33;;;;;;;10.85;6.22;;;;;;;;;;5074717;28;20040;-71
2022/10/12 02:03:13;;;;;;;12.73;7.18;;;;;;;;;;5074581;28;20439;-69
2022/10/12 02:05:42;;;;;;;10.63;6.75;;;;;;;;;;5074498;28;20484;-70
2022/10/12 02:08:09;;;;;;;12.00;6.03;;;;;;;;;;5074839;28;20052;-70
2022/10/12 02:10:38;;;;;;;11.25;7.00;;;;;;;;;;5074556;28;20044;-69
2022/10/12 02:13:06;;;;;;;13.00;6.53;;;;;;;;;;5074408;28;20052;-70
2022/10/12 02:15:33;;;;;;;14.63;6.95;;;;;;;;;;5074564;28;20049;-70
2022/10/12 02:18:01;;;;;;;14.48;6.70;;;;;;;;;;5074322;28;20062;-70
2022/10/12 02:20:28;;;;;;;10.40;6.45;;;;;;;;;;5074105;28;20052;-70
2022/10/12 02:22:54;;;;;;;11.35;6.28;;;;;;;;;;5074272;28;20044;-69
2022/10/12 02:25:22;;;;;;;10.73;7.00;;;;;;;;;;5074173;28;20045;-69
2022/10/12 02:28:01;;;;;;;16.95;6.47;;;;;;;;;;5074285;28;20048;-70
2022/10/12 02:30:29;;;;;;;11.65;6.85;;;;;;;;;;5074116;28;20404;-69
2022/10/12 02:33:05;;;;;;;10.85;6.18;;;;;;;;;;5074035;28;20416;-70
2022/10/12 02:35:41;;;;;;;11.57;6.40;;;;;;;;;;5072950;28;20059;-70
2022/10/12 02:38:26;;;;;;;13.00;6.32;;;;;;;;;;5074222;28;20054;-69
2022/10/12 02:40:55;;;;;;;11.60;6.88;;;;;;;;;;5074161;28;20045;-69
2022/10/12 02:43:42;;;;;;;11.32;5.90;;;;;;;;;;5073831;28;20054;-70
2022/10/12 02:46:09;;;;;;;10.75;5.95;;;;;;;;;;5073748;28;20052;-71
2022/10/12 02:48:38;;;;;;;12.43;6.18;;;;;;;;;;5073652;28;20123;-71
2022/10/12 02:51:05;;;;;;;11.70;6.82;;;;;;;;;;5073828;28;20059;-71
2022/10/12 02:53:31;;;;;;;9.00;5.68;;;;;;;;;;5066998;28;20048;-71
2022/10/12 02:55:59;;;;;;;10.63;6.30;;;;;;;;;;5073729;28;20055;-71
2022/10/12 02:58:26;;;;;;;;;;;;;;;;;;5074152;28;20055;-71
2022/10/12 03:00:52;;;;;;;13.65;6.28;;;;;;;;;;5073743;28;19938;-71
2022/10/12 03:03:18;;;;;;;11.40;6.53;;;;;;;;;;5073679;28;20049;-70
2022/10/12 03:05:45;;;;;;;11.68;6.78;;;;;;;;;;5073387;28;20049;-71
2022/10/12 03:08:11;;;;;;;11.38;5.82;;;;;;;;;;5073395;28;20044;-69
2022/10/12 03:10:38;;;;;;;17.60;6.78;;;;;;;;;;5073227;28;20060;-69
2022/10/12 03:13:04;;;;;;;10.95;6.07;;;;;;;;;;5073521;28;20059;-70
2022/10/12 03:15:30;;;;;;;9.45;5.28;;;;;;;;;;5073131;28;20518;-70
2022/10/12 03:17:57;;;;;;;10.07;5.22;;;;;;;;;;5073165;28;20051;-70
2022/10/12 03:20:23;;;;;;;9.63;6.03;;;;;;;;;;5073057;28;20388;-70
2022/10/12 03:22:50;;;;;;;11.90;6.20;;;;;;;;;;5073402;28;20075;-69
2022/10/12 03:25:16;;;;;;;9.63;6.50;;;;;;;;;;5073335;28;20055;-69
2022/10/12 03:27:42;;;;;;;9.90;6.20;;;;;;;;;;5072751;28;20067;-69
2022/10/12 03:30:10;;;;;;;10.93;6.20;;;;;;;;;;5073032;28;20048;-69
2022/10/12 03:32:37;;;;;;;10.60;5.95;;;;;;;;;;5072704;28;20091;-69
2022/10/12 03:35:03;;;;;;;10.73;6.13;;;;;;;;;;5071446;28;20048;-69
2022/10/12 03:37:30;;;;;;;10.68;5.78;;;;;;;;;;5072822;28;20055;-70
2022/10/12 03:39:56;;;;;;;12.52;5.82;;;;;;;;;;5072823;28;20083;-70
2022/10/12 03:42:22;;;;;;;10.15;6.05;;;;;;;;;;5072962;28;20082;-70
2022/10/12 03:44:49;;;;;;;9.75;5.55;;;;;;;;;;5072854;28;20048;-69
2022/10/12 03:47:15;;;;;;;12.80;6.30;;;;;;;;;;5072663;28;20067;-70
2022/10/12 03:49:42;;;;;;;10.23;5.57;;;;;;;;;;5072382;28;20590;-70
2022/10/12 03:52:08;;;;;;;9.20;5.70;;;;;;;;;;5072506;28;20380;-70
2022/10/12 03:54:34;;;;;;;11.85;6.05;;;;;;;;;;5072250;28;20059;-70
2022/10/12 03:57:01;;;;;;;9.55;5.82;;;;;;;;;;5072363;28;20056;-70
2022/10/12 03:59:27;;;;;;;8.77;5.43;;;;;;;;;;5072308;28;20052;-70
2022/10/12 04:01:53;;;;;;;10.45;5.93;;;;;;;;;;5072061;28;20495;-70
2022/10/12 04:04:20;;;;;;;9.57;5.78;;;;;;;;;;5072628;28;20048;-70
2022/10/12 04:06:46;;;;;;;9.10;5.80;;;;;;;;;;5072241;28;20052;-70
2022/10/12 04:09:12;;;;;;;10.68;5.80;;;;;;;;;;5072186;28;20044;-70
2022/10/12 04:11:39;;;;;;;9.63;5.38;;;;;;;;;;5072398;28;20055;-70
2022/10/12 04:14:05;;;;;;;10.55;5.82;;;;;;;;;;5072286;28;20056;-70
2022/10/12 04:16:32;;;;;;;8.77;6.38;;;;;;;;;;5072328;28;20040;-70
2022/10/12 04:18:58;;;;;;;9.07;5.85;;;;;;;;;;5072242;28;20051;-70
2022/10/12 04:21:24;;;;;;;9.93;5.97;;;;;;;;;;5072256;28;20055;-70
2022/10/12 04:23:51;;;;;;;8.65;5.97;;;;;;;;;;5071826;28;20067;-70
2022/10/12 04:26:17;;;;;;;8.45;4.95;;;;;;;;;;5072136;28;20049;-70
2022/10/12 04:28:43;;;;;;;10.40;5.93;;;;;;;;;;5071931;28;20059;-70
2022/10/12 04:31:10;;;;;;;12.18;5.22;;;;;;;;;;5071821;28;20526;-70
2022/10/12 04:33:36;;;;;;;8.68;6.03;;;;;;;;;;5071719;28;20052;-70
2022/10/12 04:36:03;;;;;;;10.15;5.95;;;;;;;;;;5071844;28;20044;-70
2022/10/12 04:38:29;;;;;;;14.05;6.13;;;;;;;;;;5071970;28;20049;-70
2022/10/12 04:40:56;;;;;;;10.40;5.35;;;;;;;;;;5071986;28;20052;-69
2022/10/12 04:43:22;;;;;;;9.85;5.30;;;;;;;;;;5070746;28;20044;-70
2022/10/12 04:45:53;;;;;;;10.65;5.95;;;;;;;;;;5071829;28;20055;-69
2022/10/12 04:48:19;;;;;;;11.90;5.05;;;;;;;;;;5071713;28;20048;-69
2022/10/12 04:50:45;;;;;;;10.50;5.40;;;;;;;;;;5071951;28;20045;-69
2022/10/12 04:53:12;;;;;;;10.15;5.50;;;;;;;;;;5071637;28;20403;-70
2022/10/12 04:55:38;;;;;;;9.30;5.65;;;;;;;;;;5071594;28;20055;-70
2022/10/12 04:58:05;;;;;;;10.90;5.38;;;;;;;;;;5071283;28;20036;-69
2022/10/12 05:00:31;;;;;;;9.93;5.45;;;;;;;;;;5071612;28;20048;-70
2022/10/12 05:02:57;;;;;;;11.88;6.13;;;;;;;;;;5071539;28;20058;-70
2022/10/12 05:05:24;;;;;;;10.48;5.32;;;;;;;;;;5071490;28;20048;-70
2022/10/12 05:07:50;;;;;;;7.68;5.38;;;;;;;;;;5071431;28;20057;-70
2022/10/12 05:10:17;;;;;;;23.20;11.85;;;;;;;;;;5071622;28;20654;-70
2022/10/12 05:12:43;;;;;;;18.20;10.02;;;;;;;;;;5071741;28;20044;-70
2022/10/12 05:15:10;;;;;;;18.63;10.93;;;;;;;;;;5071643;28;20041;-70
2022/10/12 05:17:36;;;;;;;20.50;12.15;;;;;;;;;;5071660;28;20071;-70
2022/10/12 05:20:03;;;;;;;20.02;12.10;;;;;;;;;;5071590;28;20052;-70
2022/10/12 05:22:30;;;;;;;15.88;9.75;;;;;;;;;;5071240;28;20052;-70
2022/10/12 05:24:56;;;;;;;12.15;7.07;;;;;;;;;;5071397;28;20052;-70
2022/10/12 05:27:23;;;;;;;11.18;7.18;;;;;;;;;;5071239;28;20044;-70
2022/10/12 05:29:50;;;;;;;14.83;7.60;;;;;;;;;;5071359;28;20045;-70
2022/10/12 05:32:16;;;;;;;12.32;7.05;;;;;;;;;;5071427;28;20051;-70
2022/10/12 05:34:43;;;;;;;9.77;6.43;;;;;;;;;;5071090;28;20048;-70
2022/10/12 05:37:09;;;;;;;10.18;6.47;;;;;;;;;;5071497;28;20440;-71
2022/10/12 05:39:36;;;;;;;11.00;6.65;;;;;;;;;;5071147;28;20399;-70
2022/10/12 05:42:02;;;;;;;12.05;6.55;;;;;;;;;;5071441;28;20052;-71
2022/10/12 05:44:29;;;;;;;11.40;7.07;;;;;;;;;;5071458;28;20045;-70
2022/10/12 05:46:55;;;;;;;14.32;7.40;;;;;;;;;;5068185;28;20128;-71
2022/10/12 05:49:21;;;;;;;13.15;6.47;;;;;;;;;;5050156;28;20060;-71
2022/10/12 05:51:48;;;;;;;9.95;6.78;;;;;;;;;;5066916;28;20040;-70
2022/10/12 05:54:14;;;;;;;13.40;6.43;;;;;;;;;;5049489;28;20056;-69
2022/10/12 05:56:40;;;;;;;11.23;6.72;;;;;;;;;;5050843;28;20087;-68
2022/10/12 05:59:07;;;;;;;12.27;7.28;;;;;;;;;;5050804;28;20049;-68
2022/10/12 06:01:33;;;;;;;9.68;6.20;;;;;;;;;;5050848;28;20054;-67
2022/10/12 06:04:00;;;;;;;9.82;6.70;;;;;;;;;;5070080;28;20049;-68
2022/10/12 06:06:26;;;;;;;11.82;6.05;;;;;;;;;;5070661;28;20048;-67
2022/10/12 06:08:52;;;;;;;12.00;6.57;;;;;;;;;;5070531;28;20048;-67
2022/10/12 06:11:20;;;;;;;13.73;6.80;;;;;;;;;;5073370;28;20051;-68
2022/10/12 06:13:46;;;;;;;14.43;7.00;;;;;;;;;;5074297;28;20053;-69
2022/10/12 06:16:12;;;;;;;12.05;6.75;;;;;;;;;;5074429;28;20045;-73
2022/10/12 06:18:39;;;;;;;11.13;6.72;;;;;;;;;;5074253;28;20492;-68
2022/10/12 06:21:05;;;;;;;10.38;6.97;;;;;;;;;;5055221;28;20052;-69
2022/10/12 06:23:51;;;;;;;11.73;7.03;;;;;;;;;;5069538;28;20067;-69
2022/10/12 06:26:18;;;;;;;12.40;7.65;;;;;;;;;;5073619;28;20054;-68
2022/10/12 06:28:44;;;;;;;11.63;7.50;;;;;;;;;;5073985;28;20049;-69
2022/10/12 06:31:11;;;;;;;11.75;7.10;;;;;;;;;;5073998;28;20055;-68
2022/10/12 06:33:37;;;;;;;14.07;6.88;;;;;;;;;;5073947;28;20059;-68
2022/10/12 06:36:04;;;;;;;12.10;7.82;;;;;;;;;;5073493;28;20044;-68
2022/10/12 06:38:30;;;;;;;13.55;6.63;;;;;;;;;;5073704;28;20040;-66
2022/10/12 06:40:56;;;;;;;11.40;7.18;;;;;;;;;;5056161;28;20044;-70
2022/10/12 06:43:23;;;;;;;13.82;8.00;;;;;;;;;;5065606;28;20511;-67
2022/10/12 06:45:49;;;;;;;13.80;7.05;;;;;;;;;;5056886;28;20399;-67
2022/10/12 06:48:15;;;;;;;11.18;6.32;;;;;;;;;;5073717;28;20137;-68
2022/10/12 06:50:45;;;;;;;12.13;6.30;;;;;;;;;;5072552;28;20127;-68
2022/10/12 06:53:11;;;;;;;13.45;6.30;;;;;;;;;;5072721;28;20411;-69
2022/10/12 06:55:38;;;;;;;11.88;6.22;;;;;;;;;;5073352;28;20053;-68
2022/10/12 06:58:05;;;;;;;9.77;6.73;;;;;;;;;;5072233;28;20049;-69
2022/10/12 07:00:31;;;;;;;9.75;6.63;;;;;;;;;;5073648;28;20049;-69
2022/10/12 07:02:57;;;;;;;13.35;6.70;;;;;;;;;;5073501;28;20048;-68
2022/10/12 07:05:24;;;;;;;11.80;6.50;;;;;;;;;;5073797;28;20054;-68
2022/10/12 07:07:50;;;;;;;15.77;9.27;;;;;;;;;;5073613;28;20439;-68
2022/10/12 07:10:16;;;;;;;13.02;9.18;;;;;;;;;;5073391;28;20054;-68
2022/10/12 07:12:43;;;;;;;14.77;8.25;;;;;;;;;;5073314;28;20050;-68
2022/10/12 07:15:09;;;;;;;13.13;8.13;;;;;;;;;;5073501;28;20041;-68
2022/10/12 07:17:36;;;;;;;13.25;8.13;;;;;;;;;;5071939;28;20411;-68
2022/10/12 07:20:03;;;;;;;15.10;8.10;;;;;;;;;;5073396;28;20182;-68
2022/10/12 07:22:30;;;;;;;14.23;8.00;;;;;;;;;;5073019;28;20052;-69
2022/10/12 07:24:56;;;;;;;13.38;7.40;;;;;;;;;;5073027;28;20053;-69
2022/10/12 07:27:23;;;;;;;12.45;7.05;;;;;;;;;;5072951;28;20040;-69
2022/10/12 07:29:49;;;;;;;10.07;6.55;;;;;;;;;;5073191;28;20052;-71
2022/10/12 07:32:16;;;;;;;10.88;6.38;;;;;;;;;;5072960;28;20051;-69
2022/10/12 07:34:43;;;;;;;13.45;6.93;;;;;;;;;;5072801;28;20426;-69
2022/10/12 07:37:10;;;;;;;11.35;6.82;;;;;;;;;;5071619;28;20098;-69
2022/10/12 07:39:36;;;;;;;12.38;8.68;;;;;;;;;;5072967;28;20044;-69
2022/10/12 07:42:03;;;;;;;13.05;6.95;;;;;;;;;;5072669;28;20048;-69
2022/10/12 07:44:30;;;;;;;13.73;6.25;;;;;;;;;;5072547;28;20507;-69
2022/10/12 07:46:57;;;;;;;12.43;6.80;;;;;;;;;;5072721;28;20059;-69
2022/10/12 07:49:23;;;;;;;13.27;7.03;;;;;;;;;;5072478;28;20139;-69
2022/10/12 07:51:50;;;;;;;13.93;7.30;;;;;;;;;;5072532;28;20048;-70
2022/10/12 07:54:16;;;;;;;20.80;12.73;;;;;;;;;;5072374;28;20052;-69
2022/10/12 07:56:47;;;;;;;17.17;8.20;;;;;;;;;;5072429;28;20484;-69
2022/10/12 07:59:14;;;;;;;12.80;7.20;;;;;;;;;;5072376;28;20052;-70
2022/10/12 08:01:40;;;;;;;23.45;20.45;;;;;;;;;;5072426;28;20066;-70
2022/10/12 08:04:08;;;;;;;46.20;41.22;;;;;;;;;;5072603;28;20130;-70
2022/10/12 08:06:34;;;;;;;28.65;21.50;;;;;;;;;;5072157;28;20500;-70
2022/10/12 08:09:01;;;;;;;22.13;16.42;;;;;;;;;;5072134;28;20052;-70
2022/10/12 08:11:27;;;;;;;14.00;9.33;;;;;;;;;;5072072;28;20470;-70
2022/10/12 08:13:54;;;;;;;9.55;4.97;;;;;;;;;;5072551;28;20280;-70
2022/10/12 08:16:21;;;;;;;11.57;5.10;;;;;;;;;;5072434;28;20058;-70
2022/10/12 08:18:48;;;;;;;10.60;3.90;;;;;;;;;;5072247;28;20134;-70
2022/10/12 08:21:15;;;;;;;11.93;5.22;;;;;;;;;;5072008;28;20074;-70
2022/10/12 08:23:43;;;;;;;7.15;4.40;;;;;;;;;;5072217;28;20159;-70
2022/10/12 08:26:10;;;;;;;10.07;4.15;;;;;;;;;;5072224;28;20066;-70
2022/10/12 08:28:36;;;;;;;10.82;4.03;;;;;;;;;;5072222;28;20054;-70
2022/10/12 08:31:10;;;;;;;7.43;3.87;;;;;;;;;;5071897;28;20049;-70
2022/10/12 08:33:37;;;;;;;8.55;4.18;;;;;;;;;;5071062;28;20277;-70
2022/10/12 08:36:04;;;;;;;6.53;3.28;;;;;;;;;;5072887;28;20044;-70
2022/10/12 08:38:30;;;;;;;9.63;2.72;;;;;;;;;;5071823;28;20058;-70
2022/10/12 08:41:05;;;;;;;12.55;2.72;;;;;;;;;;5057721;28;20502;-70
2022/10/12 08:43:49;;;;;;;6.55;2.22;;;;;;;;;;5072088;28;20066;-70
2022/10/12 08:46:19;;;;;;;11.55;2.35;;;;;;;;;;5071897;28;20055;-70
2022/10/12 08:48:54;;;;;;;7.60;2.47;;;;;;;;;;5071700;28;20044;-70
2022/10/12 08:51:22;;;;;;;8.50;2.15;;;;;;;;;;5071638;28;20494;-70
2022/10/12 08:53:58;;;;;;;6.15;2.05;;;;;;;;;;5072152;28;20070;-70
2022/10/12 08:56:25;;;;;;;8.55;2.75;;;;;;;;;;5071684;28;20047;-70
2022/10/12 08:58:52;;;;;;;9.32;2.90;;;;;;;;;;5071875;28;20048;-70
2022/10/12 09:01:36;;;;;;;8.35;2.42;;;;;;;;;;5071727;28;20048;-69
2022/10/12 09:04:09;;;;;;;7.85;2.28;;;;;;;;;;5070267;28;20135;-69
2022/10/12 09:06:38;;;;;;;6.00;2.10;;;;;;;;;;5071503;28;20053;-69
2022/10/12 09:09:16;;;;;;;5.00;2.30;;;;;;;;;;5071502;28;20415;-69
2022/10/12 09:12:02;;;;;;;8.30;2.40;;;;;;;;;;5071589;28;20484;-69
2022/10/12 09:14:30;;;;;;;10.88;2.50;;;;;;;;;;5071354;28;20048;-69
2022/10/12 09:16:59;;;;;;;8.77;2.47;;;;;;;;;;5071452;28;20083;-69
2022/10/12 09:19:36;;;;;;;6.65;2.28;;;;;;;;;;5071419;28;20042;-69
2022/10/12 09:22:04;;;;;;;5.63;2.30;;;;;;;;;;5071856;28;20053;-69
2022/10/12 09:24:34;;;;;;;6.82;2.05;;;;;;;;;;5071336;28;20484;-69
2022/10/12 09:27:10;;;;;;;9.30;2.47;;;;;;;;;;5071323;28;20074;-69
2022/10/12 09:29:37;;;;;;;11.43;2.97;;;;;;;;;;5071621;28;20067;-69
2022/10/12 09:32:19;;;;;;;10.77;2.50;;;;;;;;;;5071360;28;20128;-69
2022/10/12 09:34:47;;;;;;;10.10;3.35;;;;;;;;;;5071078;28;20136;-69
2022/10/12 09:37:33;;;;;;;8.85;3.30;;;;;;;;;;5071081;28;20051;-69
2022/10/12 09:40:00;;;;;;;9.52;2.85;;;;;;;;;;5070101;28;20045;-69
2022/10/12 09:42:27;;;;;;;10.00;2.83;;;;;;;;;;5071096;28;20081;-70
2022/10/12 09:45:00;;;;;;;5.90;2.13;;;;;;;;;;5073931;28;20051;-70
2022/10/12 09:47:28;;;;;;;5.70;2.45;;;;;;;;;;5074934;28;20047;-70
2022/10/12 09:49:57;;;;;;;8.45;2.50;;;;;;;;;;5074770;28;20058;-70
2022/10/12 09:52:43;;;;;;;6.90;1.92;;;;;;;;;;5074908;28;20054;-70
2022/10/12 09:55:10;;;;;;;9.32;2.10;;;;;;;;;;5074809;28;20079;-70
2022/10/12 09:57:39;;;;;;;4.55;2.03;;;;;;;;;;5074937;28;20131;-70
2022/10/12 10:00:21;;;;;;;4.60;1.75;;;;;;;;;;5074919;28;20044;-70
2022/10/12 10:02:49;;;;;;;7.63;2.10;;;;;;;;;;5074961;28;20044;-70
2022/10/12 10:05:25;;;;;;;4.82;1.50;;;;;;;;;;5074559;28;20045;-70
2022/10/12 10:07:52;;;;;;;;;;;;;;;;;;5074945;28;20483;-70
2022/10/12 10:10:18;;;;;;;5.70;1.45;;;;;;;;;;5074574;28;19920;-70
2022/10/12 10:12:50;;;;;;;6.03;1.38;;;;;;;;;;5074492;28;20041;-70
2022/10/12 10:15:39;;;;;;;7.35;1.90;;;;;;;;;;5074509;28;20049;-70
2022/10/12 10:18:18;;;;;;;4.70;1.48;;;;;;;;;;5074434;28;20048;-70
2022/10/12 10:20:51;;;;;;;4.10;1.10;;;;;;;;;;5074248;28;20484;-70
2022/10/12 10:23:20;;;;;;;7.43;1.90;;;;;;;;;;5074764;28;20055;-70
2022/10/12 10:25:54;;;;;;;6.05;1.48;;;;;;;;;;5074254;28;20044;-70
2022/10/12 10:28:26;;;;;;;4.95;1.70;;;;;;;;;;5074534;28;20056;-70
2022/10/12 10:31:01;;;;;;;8.30;1.70;;;;;;;;;;5074051;28;20044;-70
2022/10/12 10:33:29;;;;;;;3.67;1.40;;;;;;;;;;5074202;28;20049;-70
2022/10/12 10:35:57;;;;;;;5.72;1.50;;;;;;;;;;5074116;28;20048;-70
2022/10/12 10:38:24;;;;;;;6.30;1.70;;;;;;;;;;5073954;28;20474;-70
2022/10/12 10:40:51;;;;;;;6.22;1.58;;;;;;;;;;5074477;28;20056;-71
2022/10/12 10:43:20;;;;;;;7.95;1.60;;;;;;;;;;5074248;28;20063;-69
2022/10/12 10:45:50;;;;;;;4.53;1.58;;;;;;;;;;5073956;28;20059;-69
2022/10/12 10:48:21;;;;;;;3.72;1.25;;;;;;;;;;5073890;28;20520;-70
2022/10/12 10:51:01;;;;;;;6.60;1.65;;;;;;;;;;5073636;28;20055;-70
2022/10/12 10:53:40;;;;;;;5.90;1.85;;;;;;;;;;5065579;28;20128;-70
2022/10/12 10:56:16;;;;;;;6.55;1.92;;;;;;;;;;5069362;28;20040;-69
2022/10/12 10:58:44;;;;;;;4.32;1.80;;;;;;;;;;5073950;28;20063;-70
2022/10/12 11:01:17;;;;;;;3.80;1.50;;;;;;;;;;5073613;28;20518;-69
2022/10/12 11:03:54;;;;;;;11.00;1.90;;;;;;;;;;5073459;28;20052;-69
2022/10/12 11:06:23;;;;;;;6.07;1.90;;;;;;;;;;5073523;28;20098;-70
2022/10/12 11:08:54;;;;;;;5.57;1.60;;;;;;;;;;5073313;28;20408;-69
2022/10/12 11:11:23;;;;;;;5.80;1.90;;;;;;;;;;5073683;28;20048;-69
2022/10/12 11:13:59;;;;;;;4.25;1.85;;;;;;;;;;5073292;28;20045;-70
2022/10/12 11:16:38;;;;;;;7.07;1.85;;;;;;;;;;5073435;28;20472;-69
2022/10/12 11:19:11;;;;;;;7.95;3.10;;;;;;;;;;5073113;28;20047;-69
2022/10/12 11:21:41;;;;;;;6.30;2.20;;;;;;;;;;5073302;28;20049;-69
2022/10/12 11:24:08;;;;;;;5.70;2.20;;;;;;;;;;5073410;28;20060;-69
2022/10/12 11:26:36;;;;;;;6.25;2.40;;;;;;;;;;5073390;28;20055;-69
2022/10/12 11:29:03;;;;;;;6.18;2.40;;;;;;;;;;5073209;28;20048;-69
2022/10/12 11:31:29;;;;;;;5.55;2.20;;;;;;;;;;5073299;28;20048;-69
2022/10/12 11:33:57;;;;;;;4.53;2.25;;;;;;;;;;5072947;28;20053;-71
2022/10/12 11:36:27;;;;;;;8.52;2.30;;;;;;;;;;5073023;28;20480;-69
2022/10/12 11:38:55;;;;;;;4.43;1.80;;;;;;;;;;5072849;28;20135;-69
2022/10/12 11:41:25;;;;;;;4.53;1.98;;;;;;;;;;5072959;28;20044;-69
2022/10/12 11:44:21;;;;;;;5.47;2.42;;;;;;;;;;5072876;28;20059;-70
2022/10/12 11:47:12;;;;;;;4.65;1.90;;;;;;;;;;5072930;28;20171;-69
2022/10/12 11:49:45;;;;;;;5.25;2.08;;;;;;;;;;5072827;28;20048;-69
2022/10/12 11:52:12;;;;;;;5.05;2.00;;;;;;;;;;5072648;28;20480;-70
2022/10/12 11:55:05;;;;;;;6.50;1.95;;;;;;;;;;5072690;28;20047;-70
2022/10/12 11:57:33;;;;;;;6.80;2.45;;;;;;;;;;5072733;28;20049;-69
2022/10/12 12:00:04;;;;;;;7.50;2.05;;;;;;;;;;5072263;28;20484;-69
2022/10/12 12:02:30;;;;;;;8.07;2.53;;;;;;;;;;5072648;28;20048;-69
2022/10/12 12:04:57;;;;;;;8.57;2.00;;;;;;;;;;5072551;28;20048;-70
2022/10/12 12:07:42;;;;;;;3.65;2.00;;;;;;;;;;5072520;28;20048;-69
2022/10/12 12:10:39;;;;;;;5.50;1.70;;;;;;;;;;5072168;28;20511;-69
2022/10/12 12:13:10;;;;;;;6.80;2.10;;;;;;;;;;5035729;28;20064;-70
2022/10/12 12:15:41;;;;;;;5.88;1.88;;;;;;;;;;5072117;28;20520;-70
2022/10/12 12:18:13;;;;;;;5.65;1.80;;;;;;;;;;5072136;28;20062;-70
2022/10/12 12:20:42;;;;;;;5.85;1.65;;;;;;;;;;5071975;28;20415;-69
2022/10/12 12:23:25;;;;;;;5.30;2.15;;;;;;;;;;5071973;28;20048;-69
2022/10/12 12:26:10;;;;;;;8.73;2.75;;;;;;;;;;5072210;28;20055;-70
2022/10/12 12:28:41;;;;;;;5.68;2.17;;;;;;;;;;5072013;28;20056;-69
2022/10/12 12:31:12;;;;;;;5.57;2.03;;;;;;;;;;5072274;28;20099;-70
2022/10/12 12:33:41;;;;;;;5.30;2.03;;;;;;;;;;5072401;28;20047;-70
2022/10/12 12:36:09;;;;;;;5.80;2.30;;;;;;;;;;5071811;28;20413;-70
2022/10/12 12:38:39;;;;;;;5.10;2.22;;;;;;;;;;5072002;28;20381;-70
2022/10/12 12:41:06;;;;;;;7.30;2.38;;;;;;;;;;5071677;28;20054;-69
2022/10/12 12:43:35;;;;;;;6.15;2.20;;;;;;;;;;5071818;28;20051;-69
2022/10/12 12:46:10;;;;;;;3.88;2.20;;;;;;;;;;5071949;28;20130;-69
2022/10/12 12:48:42;;;;;;;6.07;2.20;;;;;;;;;;5072213;28;20082;-70
2022/10/12 12:51:09;;;;;;;7.30;2.42;;;;;;;;;;5071706;28;20052;-70
2022/10/12 12:53:37;;;;;;;4.50;2.05;;;;;;;;;;5071986;28;20048;-70
2022/10/12 12:56:03;;;;;;;4.85;2.03;;;;;;;;;;5071510;28;20071;-69
2022/10/12 12:58:47;;;;;;;4.23;2.20;;;;;;;;;;5071628;28;20041;-69
2022/10/12 13:01:42;;;;;;;6.03;2.20;;;;;;;;;;5071760;28;20220;-69
2022/10/12 13:04:17;;;;;;;6.80;2.28;;;;;;;;;;5071930;28;20052;-69
2022/10/12 13:07:02;;;;;;;5.28;2.13;;;;;;;;;;5071415;28;20059;-69
2022/10/12 13:09:44;;;;;;;7.93;2.20;;;;;;;;;;5071524;28;20072;-70
2022/10/12 13:12:19;;;;;;;7.72;2.45;;;;;;;;;;5071444;28;20047;-70
2022/10/12 13:15:06;;;;;;;6.63;1.40;;;;;;;;;;5071742;28;20044;-70
2022/10/12 13:17:46;;;;;;;6.47;1.60;;;;;;;;;;5071454;28;20160;-70
2022/10/12 13:20:17;;;;;;;5.25;1.85;;;;;;;;;;5074477;28;20045;-69
2022/10/12 13:22:44;;;;;;;5.45;1.80;;;;;;;;;;5075756;28;20420;-70
2022/10/12 13:25:17;;;;;;;3.97;1.98;;;;;;;;;;5075598;28;20063;-69
2022/10/12 13:27:50;;;;;;;5.28;2.00;;;;;;;;;;5075335;28;20059;-70
2022/10/12 13:30:17;;;;;;;5.25;1.80;;;;;;;;;;5075627;28;20056;-70
2022/10/12 13:32:43;;;;;;;6.57;1.90;;;;;;;;;;5075537;28;20234;-69
2022/10/12 13:35:13;;;;;;;5.25;1.75;;;;;;;;;;5075136;28;20408;-69
2022/10/12 13:37:40;;;;;;;5.97;1.80;;;;;;;;;;5075414;28;20040;-69
2022/10/12 13:40:25;;;;;;;5.20;1.60;;;;;;;;;;5075382;28;20051;-69
2022/10/12 13:42:51;;;;;;;6.90;2.00;;;;;;;;;;5075677;28;20052;-69
2022/10/12 13:45:18;;;;;;;3.10;1.50;;;;;;;;;;5075155;28;20055;-69
2022/10/12 13:47:45;;;;;;;3.70;1.75;;;;;;;;;;5075042;28;20056;-69
2022/10/12 13:50:18;;;;;;;5.50;1.40;;;;;;;;;;5075001;28;20063;-69
2022/10/12 13:52:51;;;;;;;6.63;1.80;;;;;;;;;;5074710;28;20058;-69
2022/10/12 13:55:23;;;;;;;5.03;1.92;;;;;;;;;;5074749;28;20488;-69
2022/10/12 13:57:50;;;;;;;4.95;1.85;;;;;;;;;;5074854;28;20048;-69
2022/10/12 14:00:19;;;;;;;7.30;1.67;;;;;;;;;;5074663;28;20407;-69
2022/10/12 14:03:02;;;;;;;6.30;2.00;;;;;;;;;;5074525;28;20512;-69
2022/10/12 14:05:30;;;;;;;5.30;1.70;;;;;;;;;;5074853;28;20051;-70
2022/10/12 14:07:59;;;;;;;4.82;1.33;;;;;;;;;;5075062;28;20482;-69
2022/10/12 14:10:28;;;;;;;4.45;1.38;;;;;;;;;;5074916;28;20048;-70
2022/10/12 14:12:55;;;;;;;4.43;1.40;;;;;;;;;;5074413;28;20040;-70
2022/10/12 14:15:30;;;;;;;7.30;1.90;;;;;;;;;;5074702;28;20074;-70
2022/10/12 14:17:57;;;;;;;5.43;1.55;;;;;;;;;;5074555;28;20052;-69
2022/10/12 14:20:29;;;;;;;6.45;2.08;;;;;;;;;;5074477;28;20091;-69
2022/10/12 14:22:57;;;;;;;7.40;1.90;;;;;;;;;;5074316;28;20055;-70
2022/10/12 14:25:25;;;;;;;5.35;1.58;;;;;;;;;;5074243;28;20058;-69
2022/10/12 14:27:55;;;;;;;5.30;1.50;;;;;;;;;;5074266;28;20073;-69
2022/10/12 14:30:35;;;;;;;3.47;1.50;;;;;;;;;;5073323;28;20054;-69
2022/10/12 14:33:08;;;;;;;4.25;1.70;;;;;;;;;;5074089;28;20064;-70
2022/10/12 14:35:34;;;;;;;4.88;1.80;;;;;;;;;;5073897;28;20057;-69
2022/10/12 14:38:21;;;;;;;6.05;1.70;;;;;;;;;;5074495;28;20486;-69
2022/10/12 14:40:47;;;;;;;4.17;1.77;;;;;;;;;;5074129;28;20055;-70
2022/10/12 14:43:13;;;;;;;5.63;1.83;;;;;;;;;;5074293;28;20291;-70
2022/10/12 14:45:40;;;;;;;7.20;2.00;;;;;;;;;;5074038;28;20140;-70
2022/10/12 14:48:13;;;;;;;5.65;2.10;;;;;;;;;;5073843;28;20053;-70
2022/10/12 14:50:39;;;;;;;4.00;1.95;;;;;;;;;;5074421;28;20411;-70